sensor_id;sensor_type;location;lat;lon;timestamp;pressure;altitude;pressure_sealevel;temperature;humidity
76285;BME280;71676;50.998;7.098;2023-11-22T00:02:13;101931.72;;;5.93;63.87
76285;BME280;71676;50.998;7.098;2023-11-22T00:04:40;101942.72;;;5.91;64.17
76285;BME280;71676;50.998;7.098;2023-11-22T00:07:06;101927.41;;;5.92;63.96
76285;BME280;71676;50.998;7.098;2023-11-22T00:09:33;101930.75;;;5.91;64.13
76285;BME280;71676;50.998;7.098;2023-11-22T00:12:00;101941.81;;;5.90;64.10
76285;BME280;71676;50.998;7.098;2023-11-22T00:14:26;101935.88;;;5.91;63.89
76285;BME280;71676;50.998;7.098;2023-11-22T00:16:53;101935.88;;;5.91;63.87
76285;BME280;71676;50.998;7.098;2023-11-22T00:19:21;101927.28;;;5.89;63.84
76285;BME280;71676;50.998;7.098;2023-11-22T00:21:48;101924.56;;;5.86;64.28
76285;BME280;71676;50.998;7.098;2023-11-22T00:24:15;101908.75;;;5.76;64.15
76285;BME280;71676;50.998;7.098;2023-11-22T00:26:41;101921.00;;;5.83;64.14
76285;BME280;71676;50.998;7.098;2023-11-22T00:29:08;101919.09;;;5.79;64.34
76285;BME280;71676;50.998;7.098;2023-11-22T00:31:35;101920.06;;;5.81;64.26
76285;BME280;71676;50.998;7.098;2023-11-22T00:34:01;101918.91;;;5.74;64.32
76285;BME280;71676;50.998;7.098;2023-11-22T00:36:29;101928.00;;;5.68;64.63
76285;BME280;71676;50.998;7.098;2023-11-22T00:38:56;101929.09;;;5.73;64.62
76285;BME280;71676;50.998;7.098;2023-11-22T00:41:22;101932.53;;;5.73;64.62
76285;BME280;71676;50.998;7.098;2023-11-22T00:43:49;101938.50;;;5.74;64.57
76285;BME280;71676;50.998;7.098;2023-11-22T00:46:16;101947.13;;;5.76;64.63
76285;BME280;71676;50.998;7.098;2023-11-22T00:48:42;101948.81;;;5.75;64.52
76285;BME280;71676;50.998;7.098;2023-11-22T00:51:09;101957.56;;;5.80;64.63
76285;BME280;71676;50.998;7.098;2023-11-22T00:53:40;101949.16;;;5.83;64.60
76285;BME280;71676;50.998;7.098;2023-11-22T00:56:07;101950.97;;;5.85;64.46
76285;BME280;71676;50.998;7.098;2023-11-22T00:58:33;101949.31;;;5.86;64.47
76285;BME280;71676;50.998;7.098;2023-11-22T01:01:00;101943.44;;;5.88;64.35
76285;BME280;71676;50.998;7.098;2023-11-22T01:03:27;101947.59;;;5.86;64.29
76285;BME280;71676;50.998;7.098;2023-11-22T01:05:53;101945.13;;;5.88;64.40
76285;BME280;71676;50.998;7.098;2023-11-22T01:08:21;101942.59;;;5.88;64.16
76285;BME280;71676;50.998;7.098;2023-11-22T01:10:49;101946.00;;;5.88;64.65
76285;BME280;71676;50.998;7.098;2023-11-22T01:13:16;101942.72;;;5.91;64.49
76285;BME280;71676;50.998;7.098;2023-11-22T01:15:43;101940.66;;;5.84;64.31
76285;BME280;71676;50.998;7.098;2023-11-22T01:18:10;101949.50;;;5.90;64.42
76285;BME280;71676;50.998;7.098;2023-11-22T01:20:37;101955.44;;;5.89;64.26
76285;BME280;71676;50.998;7.098;2023-11-22T01:23:03;101962.97;;;5.86;64.33
76285;BME280;71676;50.998;7.098;2023-11-22T01:25:30;101971.38;;;5.84;64.49
76285;BME280;71676;50.998;7.098;2023-11-22T01:27:58;101961.91;;;5.81;64.42
76285;BME280;71676;50.998;7.098;2023-11-22T01:30:25;101952.03;;;5.71;64.60
76285;BME280;71676;50.998;7.098;2023-11-22T01:32:53;101943.22;;;5.65;64.55
76285;BME280;71676;50.998;7.098;2023-11-22T01:35:20;101969.28;;;5.75;64.73
76285;BME280;71676;50.998;7.098;2023-11-22T01:37:47;101966.66;;;5.74;64.74
76285;BME280;71676;50.998;7.098;2023-11-22T01:40:14;101967.53;;;5.74;64.85
76285;BME280;71676;50.998;7.098;2023-11-22T01:42:41;101970.84;;;5.72;65.08
76285;BME280;71676;50.998;7.098;2023-11-22T01:45:09;101966.84;;;5.78;64.90
76285;BME280;71676;50.998;7.098;2023-11-22T01:47:36;101975.34;;;5.77;64.62
76285;BME280;71676;50.998;7.098;2023-11-22T01:50:04;101986.53;;;5.79;64.45
76285;BME280;71676;50.998;7.098;2023-11-22T01:52:33;101988.97;;;5.76;64.56
76285;BME280;71676;50.998;7.098;2023-11-22T01:55:01;101991.59;;;5.78;64.49
76285;BME280;71676;50.998;7.098;2023-11-22T01:57:30;101997.50;;;5.77;64.35
76285;BME280;71676;50.998;7.098;2023-11-22T02:00:00;101994.00;;;5.75;64.36
76285;BME280;71676;50.998;7.098;2023-11-22T02:02:28;102003.44;;;5.76;64.40
76285;BME280;71676;50.998;7.098;2023-11-22T02:04:55;101993.88;;;5.72;64.27
76285;BME280;71676;50.998;7.098;2023-11-22T02:07:22;101992.09;;;5.71;64.23
76285;BME280;71676;50.998;7.098;2023-11-22T02:13:19;102006.59;;;5.70;64.44
76285;BME280;71676;50.998;7.098;2023-11-22T02:15:49;102008.22;;;5.68;64.36
76285;BME280;71676;50.998;7.098;2023-11-22T02:18:26;102006.28;;;5.64;64.26
76285;BME280;71676;50.998;7.098;2023-11-22T02:21:08;102019.47;;;5.72;64.16
76285;BME280;71676;50.998;7.098;2023-11-22T02:23:43;101992.66;;;5.46;64.13
76285;BME280;71676;50.998;7.098;2023-11-22T02:26:30;102028.53;;;5.65;63.99
76285;BME280;71676;50.998;7.098;2023-11-22T02:29:27;102029.41;;;5.66;64.29
76285;BME280;71676;50.998;7.098;2023-11-22T02:32:07;102034.31;;;5.61;64.11
76285;BME280;71676;50.998;7.098;2023-11-22T02:34:56;102036.72;;;5.58;64.13
76285;BME280;71676;50.998;7.098;2023-11-22T02:37:33;102031.66;;;5.60;64.21
76285;BME280;71676;50.998;7.098;2023-11-22T02:40:31;102027.59;;;5.63;64.16
76285;BME280;71676;50.998;7.098;2023-11-22T02:43:06;102030.06;;;5.62;63.90
76285;BME280;71676;50.998;7.098;2023-11-22T02:45:50;102032.50;;;5.59;63.79
76285;BME280;71676;50.998;7.098;2023-11-22T02:49:07;102040.25;;;5.60;63.13
76285;BME280;71676;50.998;7.098;2023-11-22T02:51:53;102022.91;;;5.55;63.53
76285;BME280;71676;50.998;7.098;2023-11-22T02:54:25;102031.38;;;5.54;63.77
76285;BME280;71676;50.998;7.098;2023-11-22T03:03:35;102015.84;;;5.49;63.37
76285;BME280;71676;50.998;7.098;2023-11-22T03:06:20;102028.84;;;5.54;63.01
76285;BME280;71676;50.998;7.098;2023-11-22T03:08:50;102029.13;;;5.42;63.44
76285;BME280;71676;50.998;7.098;2023-11-22T03:11:22;102032.72;;;5.46;63.18
76285;BME280;71676;50.998;7.098;2023-11-22T03:13:51;102035.19;;;5.44;63.02
76285;BME280;71676;50.998;7.098;2023-11-22T03:16:20;102008.88;;;5.29;63.28
76285;BME280;71676;50.998;7.098;2023-11-22T03:18:52;102030.88;;;5.43;63.55
76285;BME280;71676;50.998;7.098;2023-11-22T03:21:27;102036.94;;;5.45;63.42
76285;BME280;71676;50.998;7.098;2023-11-22T03:24:12;102049.78;;;5.47;63.61
76285;BME280;71676;50.998;7.098;2023-11-22T03:26:44;102059.19;;;5.46;63.65
76285;BME280;71676;50.998;7.098;2023-11-22T03:29:15;102058.44;;;5.49;62.78
76285;BME280;71676;50.998;7.098;2023-11-22T03:31:45;102061.88;;;5.49;63.51
76285;BME280;71676;50.998;7.098;2023-11-22T03:34:15;102051.09;;;5.39;63.67
76285;BME280;71676;50.998;7.098;2023-11-22T03:36:46;102065.88;;;5.44;63.82
76285;BME280;71676;50.998;7.098;2023-11-22T03:39:15;102075.16;;;5.42;63.58
76285;BME280;71676;50.998;7.098;2023-11-22T03:41:47;102079.38;;;5.42;63.23
76285;BME280;71676;50.998;7.098;2023-11-22T03:54:33;102082.19;;;5.46;63.15
76285;BME280;71676;50.998;7.098;2023-11-22T04:06:30;102086.47;;;5.30;62.42
76285;BME280;71676;50.998;7.098;2023-11-22T04:09:13;102091.53;;;5.28;62.49
76285;BME280;71676;50.998;7.098;2023-11-22T04:18:24;102120.22;;;5.23;63.76
76285;BME280;71676;50.998;7.098;2023-11-22T04:21:07;102134.69;;;5.22;63.77
76285;BME280;71676;50.998;7.098;2023-11-22T04:23:41;102122.53;;;5.18;64.06
76285;BME280;71676;50.998;7.098;2023-11-22T04:26:23;102135.69;;;5.26;63.87
76285;BME280;71676;50.998;7.098;2023-11-22T04:28:57;102131.25;;;5.22;63.48
76285;BME280;71676;50.998;7.098;2023-11-22T04:33:34;102138.25;;;5.26;63.80
76285;BME280;71676;50.998;7.098;2023-11-22T04:42:00;102164.78;;;5.28;63.70
76285;BME280;71676;50.998;7.098;2023-11-22T04:44:47;102158.72;;;5.26;63.72
76285;BME280;71676;50.998;7.098;2023-11-22T04:50:30;102151.63;;;5.20;63.60
76285;BME280;71676;50.998;7.098;2023-11-22T04:53:06;102144.38;;;5.12;63.74
76285;BME280;71676;50.998;7.098;2023-11-22T04:55:52;102147.97;;;5.15;63.61
76285;BME280;71676;50.998;7.098;2023-11-22T04:58:57;102150.38;;;5.12;63.63
76285;BME280;71676;50.998;7.098;2023-11-22T05:02:20;102145.25;;;5.12;63.78
76285;BME280;71676;50.998;7.098;2023-11-22T05:05:08;102139.19;;;5.10;63.67
76285;BME280;71676;50.998;7.098;2023-11-22T05:07:45;102146.53;;;5.04;63.35
76285;BME280;71676;50.998;7.098;2023-11-22T05:10:18;102154.13;;;5.03;63.87
76285;BME280;71676;50.998;7.098;2023-11-22T05:22:38;102178.19;;;4.90;62.62
76285;BME280;71676;50.998;7.098;2023-11-22T05:32:16;102176.47;;;4.74;63.22
76285;BME280;71676;50.998;7.098;2023-11-22T05:35:00;102193.97;;;4.67;62.88
76285;BME280;71676;50.998;7.098;2023-11-22T05:37:34;102196.53;;;4.67;63.12
76285;BME280;71676;50.998;7.098;2023-11-22T05:40:46;102190.44;;;4.65;62.99
76285;BME280;71676;50.998;7.098;2023-11-22T05:43:39;102211.69;;;4.64;63.05
76285;BME280;71676;50.998;7.098;2023-11-22T05:46:10;102215.66;;;4.59;62.93
76285;BME280;71676;50.998;7.098;2023-11-22T05:48:42;102203.19;;;4.49;62.30
76285;BME280;71676;50.998;7.098;2023-11-22T05:57:26;102229.09;;;4.55;62.91
76285;BME280;71676;50.998;7.098;2023-11-22T06:00:03;102236.91;;;4.58;62.58
76285;BME280;71676;50.998;7.098;2023-11-22T06:02:33;102224.59;;;4.51;62.67
76285;BME280;71676;50.998;7.098;2023-11-22T06:05:07;102239.09;;;4.52;62.25
76285;BME280;71676;50.998;7.098;2023-11-22T06:14:07;102242.94;;;4.44;61.90
76285;BME280;71676;50.998;7.098;2023-11-22T06:19:41;102230.19;;;4.44;62.22
76285;BME280;71676;50.998;7.098;2023-11-22T06:22:15;102214.84;;;4.44;62.17
76285;BME280;71676;50.998;7.098;2023-11-22T06:24:47;102218.09;;;4.41;61.81
76285;BME280;71676;50.998;7.098;2023-11-22T06:27:28;102229.19;;;4.42;62.06
76285;BME280;71676;50.998;7.098;2023-11-22T06:30:44;102232.53;;;4.41;61.82
76285;BME280;71676;50.998;7.098;2023-11-22T06:33:53;102247.78;;;4.39;61.46
76285;BME280;71676;50.998;7.098;2023-11-22T06:36:30;102251.06;;;4.37;61.61
76285;BME280;71676;50.998;7.098;2023-11-22T06:39:15;102242.34;;;4.33;61.57
76285;BME280;71676;50.998;7.098;2023-11-22T06:41:57;102240.31;;;4.28;61.83
76285;BME280;71676;50.998;7.098;2023-11-22T06:44:43;102238.44;;;4.25;62.03
76285;BME280;71676;50.998;7.098;2023-11-22T06:47:31;102246.00;;;4.24;61.52
76285;BME280;71676;50.998;7.098;2023-11-22T06:56:56;102242.16;;;4.16;61.58
76285;BME280;71676;50.998;7.098;2023-11-22T07:00:13;102261.59;;;4.14;61.57
76285;BME280;71676;50.998;7.098;2023-11-22T07:06:29;102251.22;;;4.11;61.63
76285;BME280;71676;50.998;7.098;2023-11-22T07:09:09;102254.50;;;4.08;61.78
76285;BME280;71676;50.998;7.098;2023-11-22T07:11:46;102255.19;;;4.06;61.81
76285;BME280;71676;50.998;7.098;2023-11-22T07:14:30;102266.09;;;4.03;61.79
76285;BME280;71676;50.998;7.098;2023-11-22T07:20:19;102270.25;;;4.01;61.81
76285;BME280;71676;50.998;7.098;2023-11-22T07:23:16;102271.63;;;3.96;61.95
76285;BME280;71676;50.998;7.098;2023-11-22T07:26:34;102268.16;;;3.94;62.04
76285;BME280;71676;50.998;7.098;2023-11-22T07:29:12;102280.09;;;3.95;63.78
76285;BME280;71676;50.998;7.098;2023-11-22T07:32:34;102287.22;;;4.01;62.51
76285;BME280;71676;50.998;7.098;2023-11-22T07:51:20;102347.22;;;3.80;61.61
76285;BME280;71676;50.998;7.098;2023-11-22T07:54:10;102350.28;;;3.74;62.23
76285;BME280;71676;50.998;7.098;2023-11-22T07:57:26;102353.81;;;3.76;61.54
76285;BME280;71676;50.998;7.098;2023-11-22T08:00:09;102353.63;;;3.73;61.60
76285;BME280;71676;50.998;7.098;2023-11-22T08:15:57;102311.75;;;3.70;62.10
76285;BME280;71676;50.998;7.098;2023-11-22T08:19:01;102301.63;;;3.71;61.69
76285;BME280;71676;50.998;7.098;2023-11-22T08:22:09;102289.59;;;3.69;62.22
76285;BME280;71676;50.998;7.098;2023-11-22T08:35:38;102287.41;;;3.75;59.72
76285;BME280;71676;50.998;7.098;2023-11-22T08:56:33;102342.47;;;3.86;60.22
76285;BME280;71676;50.998;7.098;2023-11-22T09:24:21;102374.00;;;3.86;57.20
76285;BME280;71676;50.998;7.098;2023-11-22T09:27:16;102323.75;;;3.58;56.47
76285;BME280;71676;50.998;7.098;2023-11-22T09:43:43;102383.38;;;4.29;55.53
76285;BME280;71676;50.998;7.098;2023-11-22T09:46:39;102376.00;;;4.34;54.18
76285;BME280;71676;50.998;7.098;2023-11-22T09:49:24;102358.47;;;4.40;54.17
76285;BME280;71676;50.998;7.098;2023-11-22T09:52:00;102322.13;;;4.44;54.35
76285;BME280;71676;50.998;7.098;2023-11-22T09:58:11;102341.31;;;5.13;49.15
76285;BME280;71676;50.998;7.098;2023-11-22T10:00:51;102339.59;;;5.28;48.07
76285;BME280;71676;50.998;7.098;2023-11-22T10:03:19;102340.16;;;5.55;52.46
76285;BME280;71676;50.998;7.098;2023-11-22T10:05:46;102338.50;;;5.71;51.58
76285;BME280;71676;50.998;7.098;2023-11-22T10:08:13;102342.72;;;5.87;51.55
76285;BME280;71676;50.998;7.098;2023-11-22T10:10:39;102333.47;;;6.06;49.70
76285;BME280;71676;50.998;7.098;2023-11-22T10:13:09;102334.00;;;6.17;49.91
76285;BME280;71676;50.998;7.098;2023-11-22T10:15:38;102335.97;;;6.39;49.77
76285;BME280;71676;50.998;7.098;2023-11-22T10:18:06;102334.97;;;6.53;46.38
76285;BME280;71676;50.998;7.098;2023-11-22T10:20:37;102327.06;;;6.48;45.19
76285;BME280;71676;50.998;7.098;2023-11-22T10:23:08;102326.31;;;6.51;47.35
76285;BME280;71676;50.998;7.098;2023-11-22T10:25:35;102336.97;;;6.76;48.86
76285;BME280;71676;50.998;7.098;2023-11-22T10:28:02;102333.84;;;6.83;48.11
76285;BME280;71676;50.998;7.098;2023-11-22T10:30:29;102333.72;;;6.80;48.89
76285;BME280;71676;50.998;7.098;2023-11-22T10:32:56;102337.25;;;6.82;48.32
76285;BME280;71676;50.998;7.098;2023-11-22T10:35:25;102341.84;;;6.89;47.70
76285;BME280;71676;50.998;7.098;2023-11-22T10:37:52;102336.63;;;6.87;46.26
76285;BME280;71676;50.998;7.098;2023-11-22T10:40:19;102335.50;;;6.81;47.58
76285;BME280;71676;50.998;7.098;2023-11-22T10:42:47;102347.69;;;6.86;47.11
76285;BME280;71676;50.998;7.098;2023-11-22T10:45:17;102345.50;;;6.94;46.44
76285;BME280;71676;50.998;7.098;2023-11-22T10:47:45;102336.31;;;6.99;47.15
76285;BME280;71676;50.998;7.098;2023-11-22T10:50:12;102340.97;;;6.88;47.52
76285;BME280;71676;50.998;7.098;2023-11-22T10:52:42;102349.16;;;6.99;47.15
76285;BME280;71676;50.998;7.098;2023-11-22T10:55:11;102354.06;;;6.94;47.13
76285;BME280;71676;50.998;7.098;2023-11-22T10:57:44;102355.09;;;6.98;46.75
76285;BME280;71676;50.998;7.098;2023-11-22T11:00:15;102362.78;;;6.98;47.23
76285;BME280;71676;50.998;7.098;2023-11-22T11:02:45;102357.66;;;6.98;45.04
76285;BME280;71676;50.998;7.098;2023-11-22T11:05:16;102370.84;;;6.88;47.28
76285;BME280;71676;50.998;7.098;2023-11-22T11:07:49;102374.44;;;6.91;45.76
76285;BME280;71676;50.998;7.098;2023-11-22T11:10:21;102363.44;;;6.94;45.36
76285;BME280;71676;50.998;7.098;2023-11-22T11:12:48;102365.44;;;6.99;45.05
76285;BME280;71676;50.998;7.098;2023-11-22T11:15:16;102369.47;;;6.94;44.29
76285;BME280;71676;50.998;7.098;2023-11-22T11:17:44;102365.50;;;7.01;45.37
76285;BME280;71676;50.998;7.098;2023-11-22T11:20:15;102369.56;;;7.15;42.30
76285;BME280;71676;50.998;7.098;2023-11-22T11:22:43;102367.00;;;7.15;46.27
76285;BME280;71676;50.998;7.098;2023-11-22T11:25:15;102370.81;;;7.23;46.53
76285;BME280;71676;50.998;7.098;2023-11-22T11:27:42;102362.97;;;7.20;46.11
76285;BME280;71676;50.998;7.098;2023-11-22T11:30:42;102361.50;;;7.25;44.72
76285;BME280;71676;50.998;7.098;2023-11-22T11:33:10;102356.38;;;7.25;45.52
76285;BME280;71676;50.998;7.098;2023-11-22T11:35:38;102353.94;;;7.28;46.46
76285;BME280;71676;50.998;7.098;2023-11-22T11:38:05;102339.44;;;7.28;47.32
76285;BME280;71676;50.998;7.098;2023-11-22T11:40:36;102339.56;;;7.31;45.58
76285;BME280;71676;50.998;7.098;2023-11-22T11:43:04;102329.31;;;7.31;45.33
76285;BME280;71676;50.998;7.098;2023-11-22T11:45:35;102320.31;;;7.22;39.95
76285;BME280;71676;50.998;7.098;2023-11-22T11:48:05;102312.06;;;7.10;44.86
76285;BME280;71676;50.998;7.098;2023-11-22T11:50:31;102324.75;;;7.26;45.76
76285;BME280;71676;50.998;7.098;2023-11-22T11:52:58;102332.13;;;7.18;39.16
76285;BME280;71676;50.998;7.098;2023-11-22T11:55:26;102330.97;;;7.12;41.17
76285;BME280;71676;50.998;7.098;2023-11-22T11:57:54;102296.47;;;7.05;43.60
76285;BME280;71676;50.998;7.098;2023-11-22T12:00:22;102323.53;;;7.18;43.16
76285;BME280;71676;50.998;7.098;2023-11-22T12:02:49;102331.66;;;7.08;44.06
76285;BME280;71676;50.998;7.098;2023-11-22T12:05:19;102338.28;;;7.22;44.25
76285;BME280;71676;50.998;7.098;2023-11-22T12:07:45;102324.25;;;7.33;45.04
76285;BME280;71676;50.998;7.098;2023-11-22T12:10:12;102322.22;;;7.45;44.50
76285;BME280;71676;50.998;7.098;2023-11-22T12:12:39;102299.59;;;7.36;40.77
76285;BME280;71676;50.998;7.098;2023-11-22T12:15:09;102312.97;;;7.48;40.42
76285;BME280;71676;50.998;7.098;2023-11-22T12:17:36;102302.75;;;7.50;45.53
76285;BME280;71676;50.998;7.098;2023-11-22T12:20:10;102296.84;;;7.51;44.12
76285;BME280;71676;50.998;7.098;2023-11-22T12:22:39;102281.56;;;7.54;44.56
76285;BME280;71676;50.998;7.098;2023-11-22T12:25:07;102281.63;;;7.55;44.58
76285;BME280;71676;50.998;7.098;2023-11-22T12:27:34;102278.94;;;7.52;42.90
76285;BME280;71676;50.998;7.098;2023-11-22T12:30:06;102238.63;;;7.31;41.77
76285;BME280;71676;50.998;7.098;2023-11-22T12:32:34;102253.94;;;7.48;43.53
76285;BME280;71676;50.998;7.098;2023-11-22T12:35:01;102233.59;;;7.53;44.87
76285;BME280;71676;50.998;7.098;2023-11-22T12:37:29;102225.22;;;7.57;42.15
76285;BME280;71676;50.998;7.098;2023-11-22T12:39:56;102208.31;;;7.62;40.26
76285;BME280;71676;50.998;7.098;2023-11-22T12:42:23;102200.03;;;7.69;41.37
76285;BME280;71676;50.998;7.098;2023-11-22T12:44:50;102202.88;;;7.73;40.30
76285;BME280;71676;50.998;7.098;2023-11-22T12:47:30;102197.97;;;7.80;41.21
76285;BME280;71676;50.998;7.098;2023-11-22T12:50:01;102196.53;;;7.86;40.38
76285;BME280;71676;50.998;7.098;2023-11-22T12:52:29;102192.88;;;8.02;41.65
76285;BME280;71676;50.998;7.098;2023-11-22T12:54:57;102180.50;;;8.14;37.80
76285;BME280;71676;50.998;7.098;2023-11-22T12:57:24;102184.47;;;8.26;41.37
76285;BME280;71676;50.998;7.098;2023-11-22T12:59:51;102189.94;;;8.35;40.03
76285;BME280;71676;50.998;7.098;2023-11-22T13:02:18;102196.53;;;8.51;39.78
76285;BME280;71676;50.998;7.098;2023-11-22T13:04:45;102191.84;;;8.61;39.80
76285;BME280;71676;50.998;7.098;2023-11-22T13:07:13;102203.50;;;8.75;37.77
76285;BME280;71676;50.998;7.098;2023-11-22T13:09:40;102203.34;;;8.94;37.88
76285;BME280;71676;50.998;7.098;2023-11-22T13:12:06;102194.66;;;8.91;36.70
76285;BME280;71676;50.998;7.098;2023-11-22T13:14:33;102175.38;;;9.03;34.66
76285;BME280;71676;50.998;7.098;2023-11-22T13:17:03;102179.47;;;9.21;36.99
76285;BME280;71676;50.998;7.098;2023-11-22T13:19:32;102177.50;;;9.39;34.52
76285;BME280;71676;50.998;7.098;2023-11-22T13:21:58;102174.63;;;9.55;36.12
76285;BME280;71676;50.998;7.098;2023-11-22T13:24:26;102168.53;;;9.51;34.41
76285;BME280;71676;50.998;7.098;2023-11-22T13:26:53;102179.00;;;9.56;36.87
76285;BME280;71676;50.998;7.098;2023-11-22T13:29:20;102173.72;;;9.78;37.33
76285;BME280;71676;50.998;7.098;2023-11-22T13:31:46;102180.53;;;10.02;36.94
76285;BME280;71676;50.998;7.098;2023-11-22T13:34:13;102185.00;;;10.08;35.31
76285;BME280;71676;50.998;7.098;2023-11-22T13:36:39;102203.34;;;10.17;36.58
76285;BME280;71676;50.998;7.098;2023-11-22T13:39:06;102202.41;;;10.15;36.43
76285;BME280;71676;50.998;7.098;2023-11-22T13:41:34;102190.19;;;10.09;32.04
76285;BME280;71676;50.998;7.098;2023-11-22T13:44:01;102185.66;;;10.01;36.49
76285;BME280;71676;50.998;7.098;2023-11-22T13:46:28;102180.69;;;10.07;36.52
76285;BME280;71676;50.998;7.098;2023-11-22T13:48:55;102177.91;;;10.01;36.18
76285;BME280;71676;50.998;7.098;2023-11-22T13:51:23;102192.53;;;10.02;36.05
76285;BME280;71676;50.998;7.098;2023-11-22T13:53:50;102201.34;;;10.08;36.79
76285;BME280;71676;50.998;7.098;2023-11-22T13:56:18;102208.53;;;9.92;34.60
76285;BME280;71676;50.998;7.098;2023-11-22T13:58:47;102203.31;;;9.90;36.58
76285;BME280;71676;50.998;7.098;2023-11-22T14:01:13;102209.56;;;9.97;36.84
76285;BME280;71676;50.998;7.098;2023-11-22T14:03:46;102211.47;;;10.02;37.36
76285;BME280;71676;50.998;7.098;2023-11-22T14:06:13;102201.63;;;9.91;35.90
76285;BME280;71676;50.998;7.098;2023-11-22T14:08:42;102200.56;;;9.84;35.71
76285;BME280;71676;50.998;7.098;2023-11-22T14:11:10;102189.13;;;9.76;36.13
76285;BME280;71676;50.998;7.098;2023-11-22T14:13:38;102211.63;;;9.82;37.34
76285;BME280;71676;50.998;7.098;2023-11-22T14:16:07;102211.50;;;9.79;38.08
76285;BME280;71676;50.998;7.098;2023-11-22T14:18:34;102213.66;;;9.65;36.34
76285;BME280;71676;50.998;7.098;2023-11-22T14:21:01;102217.75;;;9.60;37.37
76285;BME280;71676;50.998;7.098;2023-11-22T14:23:29;102220.13;;;9.54;37.88
76285;BME280;71676;50.998;7.098;2023-11-22T14:25:56;102214.75;;;9.48;38.68
76285;BME280;71676;50.998;7.098;2023-11-22T14:28:22;102221.41;;;9.42;38.90
76285;BME280;71676;50.998;7.098;2023-11-22T14:30:49;102213.47;;;9.36;38.94
76285;BME280;71676;50.998;7.098;2023-11-22T14:33:21;102203.78;;;9.29;39.18
76285;BME280;71676;50.998;7.098;2023-11-22T14:35:47;102186.94;;;8.91;39.34
76285;BME280;71676;50.998;7.098;2023-11-22T14:38:14;102221.78;;;9.06;41.83
76285;BME280;71676;50.998;7.098;2023-11-22T14:40:43;102228.59;;;9.04;41.75
76285;BME280;71676;50.998;7.098;2023-11-22T14:43:10;102220.41;;;8.92;40.85
76285;BME280;71676;50.998;7.098;2023-11-22T14:45:37;102215.22;;;8.91;40.47
76285;BME280;71676;50.998;7.098;2023-11-22T14:48:05;102218.47;;;8.85;41.34
76285;BME280;71676;50.998;7.098;2023-11-22T14:50:34;102215.59;;;8.78;41.51
76285;BME280;71676;50.998;7.098;2023-11-22T14:53:01;102214.53;;;8.73;41.77
76285;BME280;71676;50.998;7.098;2023-11-22T14:55:28;102221.03;;;8.63;41.36
76285;BME280;71676;50.998;7.098;2023-11-22T14:57:54;102234.59;;;8.59;41.67
76285;BME280;71676;50.998;7.098;2023-11-22T15:00:23;102219.44;;;8.45;41.82
76285;BME280;71676;50.998;7.098;2023-11-22T15:02:50;102234.09;;;8.47;41.82
76285;BME280;71676;50.998;7.098;2023-11-22T15:05:19;102243.22;;;8.39;42.10
76285;BME280;71676;50.998;7.098;2023-11-22T15:07:48;102247.31;;;8.34;42.14
76285;BME280;71676;50.998;7.098;2023-11-22T15:10:20;102244.53;;;8.30;42.41
76285;BME280;71676;50.998;7.098;2023-11-22T15:12:46;102230.03;;;8.10;41.77
76285;BME280;71676;50.998;7.098;2023-11-22T15:15:13;102250.72;;;8.13;42.50
76285;BME280;71676;50.998;7.098;2023-11-22T15:17:40;102249.63;;;8.08;42.99
76285;BME280;71676;50.998;7.098;2023-11-22T15:20:08;102244.31;;;8.03;43.23
76285;BME280;71676;50.998;7.098;2023-11-22T15:22:37;102247.59;;;7.99;43.53
76285;BME280;71676;50.998;7.098;2023-11-22T15:28:27;102240.25;;;7.88;43.78
76285;BME280;71676;50.998;7.098;2023-11-22T15:34:16;102255.97;;;7.74;44.41
76285;BME280;71676;50.998;7.098;2023-11-22T15:36:43;102242.84;;;7.68;44.27
76285;BME280;71676;50.998;7.098;2023-11-22T15:39:11;102255.50;;;7.64;44.39
76285;BME280;71676;50.998;7.098;2023-11-22T15:41:40;102253.53;;;7.58;44.04
76285;BME280;71676;50.998;7.098;2023-11-22T15:44:10;102248.94;;;7.51;43.45
76285;BME280;71676;50.998;7.098;2023-11-22T15:46:38;102250.97;;;7.39;43.77
76285;BME280;71676;50.998;7.098;2023-11-22T15:49:06;102258.47;;;7.35;44.24
76285;BME280;71676;50.998;7.098;2023-11-22T15:51:33;102267.84;;;7.34;44.05
76285;BME280;71676;50.998;7.098;2023-11-22T15:54:00;102274.59;;;7.32;44.07
76285;BME280;71676;50.998;7.098;2023-11-22T15:56:26;102280.34;;;7.27;44.13
76285;BME280;71676;50.998;7.098;2023-11-22T15:58:53;102275.88;;;7.23;44.27
76285;BME280;71676;50.998;7.098;2023-11-22T16:01:25;102275.81;;;7.21;44.50
76285;BME280;71676;50.998;7.098;2023-11-22T16:03:52;102271.38;;;7.17;44.46
76285;BME280;71676;50.998;7.098;2023-11-22T16:06:19;102266.25;;;7.17;44.72
76285;BME280;71676;50.998;7.098;2023-11-22T16:08:46;102265.09;;;7.11;44.67
76285;BME280;71676;50.998;7.098;2023-11-22T16:11:13;102259.81;;;7.08;45.11
76285;BME280;71676;50.998;7.098;2023-11-22T16:13:41;102229.09;;;6.90;45.19
76285;BME280;71676;50.998;7.098;2023-11-22T16:16:09;102267.34;;;7.05;45.26
76285;BME280;71676;50.998;7.098;2023-11-22T16:18:38;102258.59;;;7.00;44.99
76285;BME280;71676;50.998;7.098;2023-11-22T16:21:06;102245.47;;;6.94;45.03
76285;BME280;71676;50.998;7.098;2023-11-22T16:23:36;102236.09;;;6.94;45.72
76285;BME280;71676;50.998;7.098;2023-11-22T16:26:03;102238.75;;;6.96;45.13
76285;BME280;71676;50.998;7.098;2023-11-22T16:28:30;102230.03;;;6.92;45.45
76285;BME280;71676;50.998;7.098;2023-11-22T16:30:57;102223.91;;;6.89;45.80
76285;BME280;71676;50.998;7.098;2023-11-22T16:33:24;102221.19;;;6.86;46.01
76285;BME280;71676;50.998;7.098;2023-11-22T16:35:52;102231.38;;;6.84;46.21
76285;BME280;71676;50.998;7.098;2023-11-22T16:38:19;102227.00;;;6.82;46.58
76285;BME280;71676;50.998;7.098;2023-11-22T16:40:46;102222.50;;;6.78;46.70
76285;BME280;71676;50.998;7.098;2023-11-22T16:43:17;102224.16;;;6.76;46.71
76285;BME280;71676;50.998;7.098;2023-11-22T16:45:46;102214.63;;;6.73;46.84
76285;BME280;71676;50.998;7.098;2023-11-22T16:48:14;102203.75;;;6.60;46.63
76285;BME280;71676;50.998;7.098;2023-11-22T16:50:41;102231.53;;;6.70;46.71